createdAt,value
2022-12-18T08:45:53.540Z,82.39
2022-12-18T08:49:01.813Z,53.52
2022-12-18T08:50:00.734Z,52.03
2022-12-18T08:51:00.651Z,51.53
2022-12-18T08:52:00.608Z,56.72
2022-12-18T08:53:01.600Z,50.50
2022-12-18T08:57:00.392Z,49.38
2022-12-18T08:58:00.436Z,49.44
2022-12-18T08:59:00.597Z,54.06
2022-12-18T09:00:00.923Z,48.13
2022-12-18T09:01:00.739Z,48.90
2022-12-18T09:02:01.870Z,107.40
2022-12-18T09:03:00.625Z,73.73
2022-12-18T09:04:00.942Z,49.35
2022-12-18T09:05:00.438Z,58.47
2022-12-18T09:06:00.426Z,52.71
2022-12-18T09:07:00.897Z,47.77
2022-12-18T09:08:00.469Z,50.70
2022-12-18T09:09:00.502Z,51.62
2022-12-18T09:10:00.701Z,48.96
2022-12-18T09:11:00.429Z,54.09
2022-12-18T09:12:00.552Z,49.44
2022-12-18T09:13:00.594Z,52.56
2022-12-18T09:14:00.433Z,43.73
2022-12-18T09:15:00.601Z,50.15
2022-12-18T09:16:00.465Z,46.82
2022-12-18T09:17:00.544Z,55.70
2022-12-18T09:18:02.860Z,44.37
2022-12-18T09:19:00.509Z,49.06
2022-12-18T09:20:00.714Z,45.28
2022-12-18T09:40:01.083Z,43.78
2022-12-18T09:45:01.123Z,42.19
2022-12-18T09:50:05.948Z,42.20
2022-12-18T09:55:00.777Z,40.86
2022-12-18T10:00:02.965Z,39.47
2022-12-18T10:05:01.038Z,42.41
2022-12-18T10:10:00.945Z,42.64
2022-12-18T10:15:00.915Z,43.95
2022-12-18T10:20:00.986Z,45.87
2022-12-18T10:30:01.015Z,33.29
2022-12-18T10:35:01.299Z,36.77
2022-12-18T10:40:02.921Z,35.24
2022-12-18T10:45:01.058Z,31.80
2022-12-18T10:50:00.680Z,33.06
2022-12-18T10:55:00.656Z,30.24
2022-12-18T11:00:01.227Z,52.49
2022-12-18T11:05:00.694Z,32.21
2022-12-18T11:10:00.917Z,32.86
2022-12-18T11:15:00.775Z,30.71
2022-12-18T11:20:00.719Z,34.39
2022-12-18T11:35:01.202Z,34.89
2022-12-18T11:40:00.949Z,33.21
2022-12-18T11:45:00.770Z,32.98
2022-12-18T11:50:00.734Z,30.83
2022-12-18T11:55:00.747Z,38.94
2022-12-18T12:05:00.773Z,32.60
2022-12-18T12:10:00.835Z,34.66
2022-12-18T12:15:00.967Z,34.61
2022-12-18T12:20:00.757Z,36.59
2022-12-18T12:25:00.801Z,35.22
2022-12-18T12:30:00.843Z,37.44
2022-12-18T12:35:04.761Z,36.88
2022-12-18T12:40:07.287Z,33.51
2022-12-18T12:45:00.827Z,36.95
2022-12-18T12:50:00.724Z,36.59
2022-12-18T12:55:01.049Z,38.33
2022-12-18T13:00:05.802Z,36.39
2022-12-18T13:05:00.882Z,34.76
2022-12-18T13:10:00.862Z,37.56
2022-12-18T13:15:01.043Z,35.10
2022-12-18T13:20:12.254Z,33.08
2022-12-18T13:25:00.837Z,37.36
2022-12-18T13:35:00.849Z,36.03
2022-12-18T13:40:00.638Z,36.23
2022-12-18T13:45:00.737Z,35.17
2022-12-18T13:50:00.846Z,37.56
2022-12-18T14:05:07.765Z,38.80
2022-12-18T14:10:25.877Z,37.67
2022-12-18T14:15:01.565Z,40.90
2022-12-18T14:20:00.880Z,39.54
2022-12-18T14:25:00.654Z,37.63
2022-12-18T14:30:12.107Z,38.04
2022-12-18T14:35:00.750Z,40.39
2022-12-18T14:40:05.756Z,39.51
2022-12-18T14:45:13.793Z,41.40
2022-12-18T14:50:01.960Z,42.01
2022-12-18T14:55:00.988Z,38.59
2022-12-18T15:00:02.844Z,39.31
2022-12-18T15:05:00.661Z,43.53
2022-12-18T15:10:00.840Z,41.81
2022-12-18T15:15:01.016Z,42.54
2022-12-18T15:20:00.838Z,49.73
2022-12-18T15:25:00.743Z,48.97
2022-12-18T15:30:01.154Z,51.38
2022-12-18T15:35:00.962Z,51.99
2022-12-18T15:40:01.089Z,47.36
2022-12-18T15:45:00.962Z,52.81
2022-12-18T15:50:00.671Z,50.12
2022-12-18T15:55:00.706Z,50.26
2022-12-18T16:00:01.901Z,48.54
2022-12-18T16:05:00.597Z,47.99
2022-12-18T16:10:02.875Z,49.51
2022-12-18T16:15:00.744Z,47.04
2022-12-18T16:20:02.081Z,52.74
2022-12-18T16:25:00.862Z,57.02
2022-12-18T16:30:00.991Z,51.98
2022-12-18T16:35:00.658Z,50.77
2022-12-18T16:40:00.918Z,55.04
2022-12-18T16:50:00.821Z,48.29
2022-12-18T17:00:05.026Z,47.93
2022-12-18T17:05:00.972Z,50.56
2022-12-18T17:10:00.677Z,52.39
2022-12-18T17:20:00.789Z,54.97
2022-12-18T17:25:00.792Z,58.80
2022-12-18T17:30:00.876Z,53.08
2022-12-18T17:35:06.791Z,49.08
2022-12-18T17:40:00.777Z,54.69
2022-12-18T17:50:00.644Z,54.90
2022-12-18T17:55:00.838Z,56.09
2022-12-18T18:00:01.115Z,59.05
2022-12-18T18:05:00.646Z,58.81
2022-12-18T18:10:00.996Z,56.29
2022-12-18T18:15:00.741Z,67.11
2022-12-18T18:20:00.976Z,62.98
2022-12-18T18:25:00.720Z,62.75
2022-12-18T18:30:00.991Z,83.98
2022-12-18T18:35:00.727Z,59.50
2022-12-18T18:40:00.714Z,67.14
2022-12-18T18:45:01.030Z,68.03
2022-12-18T18:50:00.806Z,70.84
2022-12-18T19:00:01.427Z,57.89
2022-12-18T19:05:01.808Z,58.13
2022-12-18T19:10:04.180Z,56.53
2022-12-18T19:15:00.728Z,71.10
2022-12-18T19:20:00.799Z,68.45
2022-12-18T19:25:00.667Z,55.93
2022-12-18T19:30:00.870Z,57.77
2022-12-18T19:35:00.688Z,56.75
2022-12-18T19:40:00.954Z,54.42
2022-12-18T19:45:01.330Z,75.99
2022-12-18T19:50:01.431Z,72.89
2022-12-18T19:55:00.766Z,74.52
2022-12-18T20:00:01.543Z,63.87
2022-12-18T20:05:00.781Z,64.76
2022-12-18T20:10:08.420Z,64.63
2022-12-18T20:15:00.908Z,65.41
2022-12-18T20:20:00.764Z,77.40
2022-12-18T20:25:01.132Z,72.64
2022-12-18T20:30:00.745Z,88.16
2022-12-18T20:35:00.772Z,81.63
2022-12-18T20:45:00.704Z,71.54
2022-12-18T21:00:01.860Z,66.03
2022-12-18T21:05:00.923Z,62.52
2022-12-18T21:10:00.566Z,62.69
2022-12-18T21:15:01.052Z,67.04
2022-12-18T21:20:00.632Z,69.01
2022-12-18T21:25:00.620Z,63.12
2022-12-18T21:30:00.810Z,65.43
2022-12-18T21:35:00.668Z,62.68
2022-12-18T21:40:00.884Z,61.95
2022-12-18T21:45:00.695Z,75.59
2022-12-18T21:50:01.722Z,63.93
2022-12-18T21:55:04.813Z,59.33
2022-12-18T22:00:01.074Z,63.78
2022-12-18T22:05:00.511Z,60.16
2022-12-18T22:10:00.928Z,55.45
2022-12-18T22:15:00.944Z,57.52
2022-12-18T22:20:00.971Z,57.40
2022-12-18T22:25:00.435Z,57.95
2022-12-18T22:30:01.115Z,58.36
2022-12-18T22:35:05.785Z,57.11
2022-12-18T22:40:03.058Z,53.96
2022-12-18T22:45:01.030Z,54.70
2022-12-18T22:50:00.503Z,58.64
2022-12-18T22:55:00.693Z,62.61
2022-12-18T23:10:01.356Z,60.34
2022-12-18T23:15:00.650Z,57.36
2022-12-18T23:20:00.829Z,58.38
2022-12-18T23:25:00.821Z,58.49
2022-12-18T23:30:00.597Z,58.56
2022-12-18T23:35:02.552Z,58.10
2022-12-18T23:40:00.696Z,60.53
2022-12-18T23:45:01.045Z,57.08
2022-12-18T23:50:01.031Z,61.24
